Time;durP1;ratioP1;P1;durP2;ratioP2;P2;SDS_P1;SDS_P2;PMS_P1;PMS_P2;Temp;Humidity;BMP_temperature;BMP_pressure;BME280_temperature;BME280_humidity;BME280_pressure;Samples;Min_cycle;Max_cycle;Signal;HPM_P1;HPM_P2
2024/03/16 00:00:23;;;;;;;0.85;0.82;;;7.80;99.90;;;;;;5109957;27;20032;-80
2024/03/16 00:03:14;;;;;;;2.30;1.13;;;7.80;99.90;;;;;;5099440;27;20039;-80
2024/03/16 00:06:01;;;;;;;2.00;1.00;;;7.80;99.90;;;;;;5110454;27;20039;-79
2024/03/16 00:08:50;;;;;;;2.67;1.25;;;7.80;99.90;;;;;;5107630;27;20482;-76
2024/03/16 00:11:40;;;;;;;1.65;0.90;;;7.80;1.00;;;;;;5113773;27;20050;-81
2024/03/16 00:14:27;;;;;;;1.52;1.10;;;7.80;1.00;;;;;;5101607;27;20039;-79
2024/03/16 00:17:20;;;;;;;3.92;1.23;;;7.80;1.00;;;;;;5100850;27;20051;-82
2024/03/16 00:20:25;;;;;;;1.58;1.15;;;7.80;1.00;;;;;;5103318;27;20046;-82
2024/03/16 00:23:13;;;;;;;2.78;0.98;;;7.70;1.00;;;;;;5104305;27;20739;-82
2024/03/16 00:26:01;;;;;;;3.45;1.10;;;7.60;1.00;;;;;;5077672;28;20039;-81
2024/03/16 00:28:50;;;;;;;1.50;1.30;;;7.60;1.00;;;;;;5099329;28;20054;-79
2024/03/16 00:31:41;;;;;;;2.00;1.42;;;7.50;4.70;;;;;;5105760;28;20061;-80
2024/03/16 00:34:30;;;;;;;1.55;0.98;;;7.50;99.90;;;;;;5091480;27;20048;-76
2024/03/16 00:37:18;;;;;;;1.08;1.00;;;7.40;99.90;;;;;;5106856;27;20483;-78
2024/03/16 00:40:07;;;;;;;1.33;1.20;;;7.40;1.00;;;;;;5108260;28;20028;-77
2024/03/16 00:42:57;;;;;;;1.67;1.20;;;7.30;99.90;;;;;;5067711;28;20108;-79
2024/03/16 00:45:45;;;;;;;4.05;1.25;;;7.30;1.00;;;;;;5085273;28;20051;-78
2024/03/16 00:48:32;;;;;;;4.57;1.30;;;7.30;1.00;;;;;;5097314;27;20044;-81
2024/03/16 00:51:28;;;;;;;1.40;1.30;;;7.30;99.90;;;;;;5083711;27;20720;-77
2024/03/16 00:54:16;;;;;;;1.70;1.00;;;7.20;99.90;;;;;;5095497;28;20203;-79
2024/03/16 00:57:07;;;;;;;1.60;0.98;;;7.20;99.90;;;;;;5104288;27;20054;-80
2024/03/16 00:59:57;;;;;;;2.42;0.90;;;7.20;99.90;;;;;;5104471;27;20141;-78
2024/03/16 01:02:45;;;;;;;2.25;1.20;;;7.20;99.90;;;;;;5082773;28;20903;-79
2024/03/16 01:05:32;;;;;;;1.77;1.60;;;7.20;99.90;;;;;;5098662;27;20035;-81
2024/03/16 01:08:21;;;;;;;3.70;1.20;;;7.20;99.90;;;;;;5101959;27;20047;-81
2024/03/16 01:11:09;;;;;;;2.65;1.80;;;7.20;99.90;;;;;;5099251;27;20126;-79
2024/03/16 01:13:57;;;;;;;2.15;1.33;;;7.20;99.90;;;;;;5106641;27;20069;-82
2024/03/16 01:16:44;;;;;;;1.83;1.10;;;7.20;99.90;;;;;;5108724;27;20440;-82
2024/03/16 01:19:32;;;;;;;1.48;1.05;;;7.20;99.90;;;;;;5094837;28;20150;-80
2024/03/16 01:22:20;;;;;;;1.02;0.93;;;7.30;99.90;;;;;;5095542;27;20044;-81
2024/03/16 01:25:08;;;;;;;1.73;1.00;;;7.30;53.30;;;;;;5092728;28;20113;-77
2024/03/16 01:27:57;;;;;;;2.83;1.38;;;7.30;43.10;;;;;;5097729;28;20586;-82
2024/03/16 01:30:45;;;;;;;3.65;1.10;;;7.30;1.00;;;;;;5088769;28;20058;-82
2024/03/16 01:33:33;;;;;;;0.90;0.90;;;7.30;1.00;;;;;;5095857;28;20056;-80
2024/03/16 01:36:23;;;;;;;1.20;1.10;;;7.30;1.00;;;;;;5099807;27;20062;-81
2024/03/16 01:39:12;;;;;;;2.63;1.10;;;7.30;1.00;;;;;;5114822;27;20494;-81
2024/03/16 01:42:00;;;;;;;1.23;1.08;;;7.40;99.90;;;;;;5079924;28;20035;-83
2024/03/16 01:45:26;;;;;;;2.10;1.10;;;7.30;99.90;;;;;;5104961;28;20048;-83
2024/03/16 01:48:15;;;;;;;1.58;1.20;;;7.30;99.90;;;;;;5056625;28;20045;-76
2024/03/16 01:51:03;;;;;;;1.00;1.00;;;7.40;47.40;;;;;;5097320;28;20042;-80
2024/03/16 01:53:52;;;;;;;1.30;0.90;;;7.40;1.00;;;;;;5092858;28;20035;-79
2024/03/16 01:56:40;;;;;;;1.60;1.00;;;7.30;1.00;;;;;;5121615;27;20028;-77
2024/03/16 01:59:28;;;;;;;6.72;1.20;;;7.30;1.00;;;;;;5127845;27;20065;-77
2024/03/16 02:02:36;;;;;;;0.88;0.88;;;7.30;1.00;;;;;;5112807;27;20040;-81
2024/03/16 02:05:24;;;;;;;3.38;1.08;;;7.30;1.00;;;;;;5108350;27;20482;-81
2024/03/16 02:08:15;;;;;;;1.42;0.90;;;7.30;1.00;;;;;;5105808;27;20714;-79
2024/03/16 02:11:03;;;;;;;3.67;1.10;;;7.30;99.90;;;;;;5088321;27;20168;-81
2024/03/16 02:13:52;;;;;;;1.13;0.90;;;7.30;99.90;;;;;;5091352;27;20302;-82
2024/03/16 02:16:40;;;;;;;2.92;0.90;;;7.30;99.90;;;;;;5108400;27;20047;-82
2024/03/16 02:19:33;;;;;;;1.95;1.10;;;7.30;99.90;;;;;;5106393;27;20047;-79
2024/03/16 02:22:23;;;;;;;2.15;1.05;;;7.30;99.90;;;;;;5090251;27;20039;-79
2024/03/16 02:25:11;;;;;;;2.03;1.10;;;7.20;99.90;;;;;;5105767;27;20717;-82
2024/03/16 02:27:59;;;;;;;1.63;1.00;;;7.30;99.90;;;;;;5105448;27;20101;-74
2024/03/16 02:30:48;;;;;;;0.98;0.90;;;7.30;99.90;;;;;;5094493;27;20188;-83
2024/03/16 02:33:41;;;;;;;1.30;0.98;;;7.20;99.90;;;;;;5104737;27;20170;-79
2024/03/16 02:36:31;;;;;;;1.95;1.10;;;7.20;99.90;;;;;;5091390;28;20044;-82
2024/03/16 02:39:20;;;;;;;1.55;0.90;;;7.20;99.90;;;;;;5111517;27;20069;-82
2024/03/16 02:42:09;;;;;;;0.88;0.80;;;7.20;80.30;;;;;;5106734;27;20050;-83
2024/03/16 02:44:56;;;;;;;0.98;0.90;;;7.20;86.80;;;;;;5102806;28;20821;-77
2024/03/16 02:47:45;;;;;;;1.70;1.00;;;7.10;99.90;;;;;;5089769;27;20055;-81
2024/03/16 02:50:34;;;;;;;3.67;1.50;;;7.10;99.90;;;;;;5109306;27;20039;-78
2024/03/16 02:53:22;;;;;;;2.90;1.02;;;7.10;99.90;;;;;;5099933;27;20130;-83
2024/03/16 02:56:09;;;;;;;1.30;1.20;;;7.10;99.90;;;;;;5086157;28;20036;-82
2024/03/16 02:58:58;;;;;;;3.38;0.73;;;7.10;99.90;;;;;;5089247;28;20043;-79
2024/03/16 03:01:48;;;;;;;1.83;0.85;;;7.10;99.90;;;;;;5104656;27;20032;-79
2024/03/16 03:04:35;;;;;;;1.70;0.85;;;7.10;99.90;;;;;;5103748;28;20063;-80
2024/03/16 03:07:23;;;;;;;1.27;1.00;;;7.10;99.90;;;;;;5105123;27;20059;-77
2024/03/16 03:10:16;;;;;;;1.60;0.93;;;7.10;1.00;;;;;;5102460;27;20444;-81
2024/03/16 03:13:04;;;;;;;3.05;1.13;;;7.10;1.00;;;;;;5114331;27;20042;-81
2024/03/16 03:15:52;;;;;;;1.33;1.08;;;7.10;1.00;;;;;;5100515;28;20063;-80
2024/03/16 03:18:39;;;;;;;1.00;0.90;;;7.20;26.70;;;;;;5095113;28;20101;-74
2024/03/16 03:21:29;;;;;;;1.77;1.00;;;7.20;92.70;;;;;;5081370;28;20518;-79
2024/03/16 03:24:18;;;;;;;2.55;0.82;;;7.20;99.60;;;;;;5095463;28;20123;-74
2024/03/16 03:27:06;;;;;;;4.78;1.00;;;7.20;99.90;;;;;;5111844;27;20040;-80
2024/03/16 03:29:54;;;;;;;2.78;1.00;;;7.20;99.90;;;;;;5087840;28;20099;-79
2024/03/16 03:32:41;;;;;;;0.98;0.88;;;7.20;99.90;;;;;;5099105;27;20054;-80
2024/03/16 03:35:29;;;;;;;4.03;1.05;;;7.20;99.90;;;;;;5106455;27;20067;-82
2024/03/16 03:38:16;;;;;;;2.00;1.25;;;7.20;99.90;;;;;;5106647;27;20051;-82
2024/03/16 03:41:04;;;;;;;1.73;1.10;;;7.20;99.90;;;;;;5105957;27;20161;-81
2024/03/16 03:43:59;;;;;;;2.30;0.95;;;7.20;1.00;;;;;;5079693;28;20048;-80
2024/03/16 03:46:50;;;;;;;3.40;1.00;;;7.30;1.00;;;;;;5090618;27;20058;-82
2024/03/16 03:49:40;;;;;;;2.37;1.10;;;7.30;1.00;;;;;;5103768;27;20048;-81
2024/03/16 03:52:28;;;;;;;2.47;1.10;;;7.30;1.40;;;;;;5109047;27;20906;-81
2024/03/16 03:55:18;;;;;;;2.78;1.02;;;7.30;77.90;;;;;;5098631;27;20040;-76
2024/03/16 03:58:05;;;;;;;2.33;1.27;;;7.40;90.60;;;;;;5098205;27;20036;-80
2024/03/16 04:00:53;;;;;;;2.50;1.02;;;7.50;71.80;;;;;;5098127;28;20529;-82
2024/03/16 04:03:41;;;;;;;2.25;1.10;;;7.50;29.80;;;;;;5108536;28;20565;-78
2024/03/16 04:06:28;;;;;;;5.00;1.45;;;7.50;2.30;;;;;;5092537;28;20036;-80
2024/03/16 04:09:20;;;;;;;1.95;1.10;;;7.60;1.00;;;;;;5101702;28;20796;-74
2024/03/16 04:12:09;;;;;;;3.42;1.30;;;7.60;1.00;;;;;;5115505;27;20051;-77
2024/03/16 04:14:56;;;;;;;6.00;1.30;;;7.60;1.00;;;;;;5096743;28;20047;-79
2024/03/16 04:17:44;;;;;;;2.55;0.93;;;7.70;1.00;;;;;;5099080;28;20162;-81
2024/03/16 04:20:32;;;;;;;2.30;1.23;;;7.70;99.90;;;;;;5103987;28;20049;-82
2024/03/16 04:23:20;;;;;;;3.63;1.20;;;7.70;99.90;;;;;;5091580;27;20057;-79
2024/03/16 04:26:08;;;;;;;3.17;1.23;;;7.80;99.90;;;;;;5087753;28;20753;-81
2024/03/16 04:28:55;;;;;;;3.42;1.38;;;7.70;99.90;;;;;;5083116;28;20062;-82
2024/03/16 04:31:43;;;;;;;5.05;1.30;;;7.80;99.90;;;;;;5098109;27;20047;-80
2024/03/16 04:34:31;;;;;;;2.85;1.13;;;7.80;99.90;;;;;;5090987;28;20093;-78
2024/03/16 04:37:19;;;;;;;3.22;1.30;;;7.80;99.90;;;;;;5106349;28;20039;-79
2024/03/16 04:40:08;;;;;;;3.78;1.20;;;7.70;99.90;;;;;;5093299;28;20490;-82
2024/03/16 04:42:57;;;;;;;2.70;1.42;;;7.70;1.00;;;;;;5084423;28;20544;-79
2024/03/16 04:45:48;;;;;;;6.82;1.50;;;7.70;99.90;;;;;;5113158;28;20043;-80
2024/03/16 04:48:38;;;;;;;2.08;1.58;;;7.70;99.90;;;;;;5092304;28;20113;-83
2024/03/16 04:51:26;;;;;;;2.13;1.60;;;7.70;1.00;;;;;;5107032;27;20032;-77
2024/03/16 04:54:14;;;;;;;5.03;2.13;;;7.70;76.40;;;;;;5104292;27;20043;-78
2024/03/16 04:57:03;;;;;;;7.25;2.40;;;7.60;99.90;;;;;;5100662;28;20039;-79
2024/03/16 04:59:50;;;;;;;5.35;1.92;;;7.60;99.90;;;;;;5098636;28;20092;-83
2024/03/16 05:02:38;;;;;;;6.75;2.20;;;7.60;99.90;;;;;;5085539;28;20066;-78
2024/03/16 05:05:25;;;;;;;6.75;2.10;;;7.60;99.90;;;;;;5100853;27;20050;-78
2024/03/16 05:08:12;;;;;;;4.68;2.13;;;7.60;99.90;;;;;;5103588;27;20048;-79
2024/03/16 05:11:00;;;;;;;4.50;1.88;;;7.60;99.90;;;;;;5087176;27;20039;-80
2024/03/16 05:13:47;;;;;;;4.38;2.50;;;7.60;99.90;;;;;;5086771;28;20043;-81
2024/03/16 05:16:36;;;;;;;5.38;2.50;;;7.50;99.90;;;;;;5100330;28;20036;-83
2024/03/16 05:19:25;;;;;;;5.07;3.03;;;7.50;99.90;;;;;;5099292;28;20105;-81
2024/03/16 05:22:13;;;;;;;9.88;3.28;;;7.50;99.90;;;;;;5087427;28;20055;-80
2024/03/16 05:25:02;;;;;;;5.03;2.90;;;7.50;99.90;;;;;;5102507;27;20039;-83
2024/03/16 05:27:49;;;;;;;6.53;3.38;;;7.50;99.90;;;;;;5110774;27;20048;-82
2024/03/16 05:30:38;;;;;;;7.25;3.25;;;7.50;99.90;;;;;;5098504;27;20043;-82
2024/03/16 05:33:25;;;;;;;7.63;3.08;;;7.50;99.90;;;;;;5100723;27;20921;-80
2024/03/16 05:36:13;;;;;;;7.13;2.97;;;7.50;99.90;;;;;;5112792;27;20048;-82
2024/03/16 05:39:00;;;;;;;4.25;2.60;;;7.50;99.90;;;;;;5106131;27;20046;-81
2024/03/16 05:41:49;;;;;;;6.50;2.60;;;7.50;99.90;;;;;;5092042;28;20055;-79
2024/03/16 05:44:37;;;;;;;4.75;2.63;;;7.50;99.90;;;;;;5111601;27;20108;-77
2024/03/16 05:47:24;;;;;;;4.68;2.45;;;7.50;99.90;;;;;;5117148;28;20044;-78
2024/03/16 05:50:13;;;;;;;3.17;2.00;;;7.60;99.90;;;;;;5119302;28;20052;-76
2024/03/16 05:53:01;;;;;;;5.20;1.63;;;7.60;99.90;;;;;;5120900;28;20044;-75
2024/03/16 05:55:49;;;;;;;6.05;1.70;;;7.60;99.90;;;;;;5109043;28;20117;-81
2024/03/16 05:58:39;;;;;;;4.60;1.30;;;7.70;99.90;;;;;;5100343;28;20459;-81
2024/03/16 06:01:26;;;;;;;6.07;1.75;;;7.70;99.90;;;;;;5104569;28;20518;-81
2024/03/16 06:04:15;;;;;;;6.82;2.42;;;7.70;99.90;;;;;;5104826;28;20050;-80
2024/03/16 06:07:04;;;;;;;6.18;2.25;;;7.70;99.90;;;;;;5099211;28;20042;-80
2024/03/16 06:09:52;;;;;;;5.72;1.40;;;7.80;99.90;;;;;;5108370;28;20586;-80
2024/03/16 06:12:39;;;;;;;3.50;1.27;;;7.70;99.90;;;;;;5095058;28;20040;-83
2024/03/16 06:15:27;;;;;;;1.38;1.15;;;7.80;99.90;;;;;;5102460;28;20073;-80
2024/03/16 06:18:18;;;;;;;6.07;1.60;;;7.70;99.90;;;;;;5087004;28;20122;-81
2024/03/16 06:21:08;;;;;;;3.08;1.60;;;7.70;99.90;;;;;;5107235;28;20176;-81
2024/03/16 06:23:55;;;;;;;4.32;1.73;;;7.60;99.90;;;;;;5099777;28;20036;-77
2024/03/16 06:26:51;;;;;;;4.93;1.40;;;7.60;99.90;;;;;;5095668;28;20535;-79
2024/03/16 06:29:41;;;;;;;1.02;0.95;;;7.50;99.90;;;;;;5098203;28;20391;-76
2024/03/16 06:32:34;;;;;;;6.88;1.20;;;7.60;99.90;;;;;;5093948;28;20055;-78
2024/03/16 06:35:22;;;;;;;1.60;1.50;;;7.60;99.90;;;;;;5100581;28;20094;-81
2024/03/16 06:38:09;;;;;;;3.53;1.75;;;7.70;99.90;;;;;;5081112;28;20039;-78
2024/03/16 06:40:58;;;;;;;5.85;2.58;;;7.90;99.90;;;;;;5098935;28;20101;-78
2024/03/16 06:43:48;;;;;;;7.15;2.58;;;8.10;99.90;;;;;;5108632;27;20080;-80
2024/03/16 06:46:38;;;;;;;8.38;3.38;;;8.50;99.90;;;;;;5102607;28;20393;-79
2024/03/16 06:49:25;;;;;;;7.90;2.90;;;8.70;99.90;;;;;;5107063;28;20043;-77
2024/03/16 06:52:24;;;;;;;6.32;3.17;;;8.90;99.90;;;;;;5098340;28;20492;-82
2024/03/16 06:55:13;;;;;;;6.90;3.30;;;8.90;99.90;;;;;;5106102;27;20042;-81
2024/03/16 06:58:00;;;;;;;8.25;3.13;;;9.00;99.90;;;;;;5107829;27;20060;-78
2024/03/16 07:00:48;;;;;;;6.93;2.70;;;8.80;99.90;;;;;;5094965;28;20059;-83
2024/03/16 07:03:36;;;;;;;13.00;4.95;;;8.80;99.90;;;;;;5110233;28;20509;-80
2024/03/16 07:06:24;;;;;;;9.57;2.70;;;8.70;99.90;;;;;;5109456;27;20047;-82
2024/03/16 07:09:13;;;;;;;7.10;2.85;;;8.60;99.90;;;;;;5084841;28;20047;-83
2024/03/16 07:12:01;;;;;;;8.35;3.60;;;8.60;99.90;;;;;;5100224;28;20093;-81
2024/03/16 07:14:48;;;;;;;5.30;2.83;;;8.60;99.90;;;;;;5105639;28;20044;-84
2024/03/16 07:17:35;;;;;;;8.50;3.42;;;8.60;99.90;;;;;;5109311;28;20428;-80
2024/03/16 07:20:23;;;;;;;8.82;3.78;;;8.70;99.90;;;;;;5103251;28;20162;-81
2024/03/16 07:23:10;;;;;;;6.57;2.97;;;8.70;99.90;;;;;;5098256;27;20559;-83
2024/03/16 07:25:58;;;;;;;12.48;4.20;;;8.80;99.90;;;;;;5092574;28;20047;-80
2024/03/16 07:28:49;;;;;;;9.30;3.05;;;8.80;99.90;;;;;;5101214;28;20070;-80
2024/03/16 07:31:36;;;;;;;6.85;3.10;;;8.90;99.90;;;;;;5104407;28;20042;-81
2024/03/16 07:34:24;;;;;;;3.95;2.85;;;8.90;99.90;;;;;;5104410;27;20518;-80
2024/03/16 07:37:14;;;;;;;9.77;3.45;;;8.90;99.90;;;;;;5098963;28;20184;-81
2024/03/16 07:40:05;;;;;;;5.00;2.85;;;8.80;99.90;;;;;;5100113;28;20048;-80
2024/03/16 07:42:53;;;;;;;10.18;4.60;;;8.90;99.90;;;;;;5102681;27;20095;-81
2024/03/16 07:45:42;;;;;;;8.32;2.60;;;8.90;99.90;;;;;;5106849;28;20051;-79
2024/03/16 07:48:30;;;;;;;5.45;3.05;;;9.10;99.90;;;;;;5110628;27;20039;-81
2024/03/16 07:51:19;;;;;;;8.30;3.00;;;9.20;99.90;;;;;;5102294;27;20048;-80
2024/03/16 07:54:11;;;;;;;6.75;3.20;;;9.50;99.90;;;;;;5095512;27;20074;-81
2024/03/16 07:57:00;;;;;;;3.88;2.60;;;9.80;99.90;;;;;;5100570;27;20658;-79
2024/03/16 07:59:49;;;;;;;6.55;2.80;;;9.60;99.90;;;;;;5104230;27;20458;-82
2024/03/16 08:02:45;;;;;;;6.80;3.13;;;9.80;99.90;;;;;;5103993;28;20059;-81
2024/03/16 08:05:34;;;;;;;8.68;2.95;;;9.90;99.90;;;;;;5098168;28;20036;-81
2024/03/16 08:08:24;;;;;;;13.67;3.23;;;9.90;99.90;;;;;;5098802;28;20565;-82
2024/03/16 08:11:13;;;;;;;10.52;3.40;;;9.80;99.90;;;;;;5076836;28;20273;-80
2024/03/16 08:14:00;;;;;;;9.15;3.28;;;9.70;99.90;;;;;;5102932;28;20050;-80
2024/03/16 08:16:53;;;;;;;9.40;3.00;;;9.80;99.90;;;;;;5087348;27;20436;-81
2024/03/16 08:19:52;;;;;;;14.23;3.90;;;9.80;99.90;;;;;;5089620;28;20048;-80
2024/03/16 08:22:43;;;;;;;8.40;3.17;;;9.80;99.90;;;;;;5097830;27;20054;-83
2024/03/16 08:25:32;;;;;;;10.40;3.47;;;9.80;99.90;;;;;;5102641;27;20514;-82
2024/03/16 08:28:23;;;;;;;7.85;2.97;;;9.70;99.90;;;;;;5085925;28;20185;-82
2024/03/16 08:31:12;;;;;;;7.25;3.83;;;9.50;99.90;;;;;;5100851;28;20397;-80
2024/03/16 08:34:00;;;;;;;9.70;2.92;;;9.50;99.90;;;;;;5114089;27;20040;-75
2024/03/16 08:36:48;;;;;;;10.35;3.25;;;9.50;99.90;;;;;;5112049;27;20044;-83
2024/03/16 08:39:38;;;;;;;4.97;2.20;;;9.50;99.90;;;;;;5092081;27;20386;-80
2024/03/16 08:42:26;;;;;;;5.85;1.77;;;9.60;99.90;;;;;;5106129;27;20043;-81
2024/03/16 08:45:15;;;;;;;3.00;1.60;;;9.50;99.90;;;;;;5103494;28;20042;-80
2024/03/16 08:48:06;;;;;;;3.95;1.90;;;9.40;99.90;;;;;;5107828;27;20047;-81
2024/03/16 08:50:59;;;;;;;2.83;1.98;;;9.40;99.90;;;;;;5087594;27;20447;-80
2024/03/16 08:53:46;;;;;;;;;;;9.50;99.90;;;;;;5104757;28;20104;-80
2024/03/16 08:56:35;;;;;;;4.07;1.52;;;9.50;99.90;;;;;;5100582;27;19928;-81
2024/03/16 08:59:26;;;;;;;5.45;3.13;;;9.50;99.90;;;;;;5094990;27;20505;-79
2024/03/16 09:02:20;;;;;;;4.55;2.70;;;9.40;99.90;;;;;;5097595;28;20047;-82
2024/03/16 09:05:10;;;;;;;5.28;2.30;;;9.40;99.90;;;;;;5100250;28;20036;-79
2024/03/16 09:08:05;;;;;;;3.53;2.13;;;9.40;99.90;;;;;;5082331;27;20216;-79
2024/03/16 09:11:00;;;;;;;3.10;1.63;;;9.40;99.90;;;;;;5090077;28;20037;-82
2024/03/16 09:13:51;;;;;;;2.22;1.10;;;9.40;97.10;;;;;;5104309;28;20036;-84
2024/03/16 09:16:43;;;;;;;4.53;1.83;;;9.40;90.60;;;;;;5082774;28;20155;-82
2024/03/16 09:19:38;;;;;;;4.07;1.40;;;9.50;93.90;;;;;;5101552;28;20048;-77
2024/03/16 09:22:25;;;;;;;1.13;0.70;;;9.60;99.90;;;;;;5101919;27;20045;-77
2024/03/16 09:25:14;;;;;;;1.00;0.80;;;9.80;99.90;;;;;;5096535;27;20197;-81
2024/03/16 09:28:02;;;;;;;3.30;1.10;;;10.10;99.90;;;;;;5086633;27;20113;-82
2024/03/16 09:30:50;;;;;;;1.45;0.93;;;10.50;99.90;;;;;;5093441;27;20047;-83
2024/03/16 09:33:42;;;;;;;1.00;0.80;;;10.40;99.90;;;;;;5087936;28;20040;-77
2024/03/16 09:36:30;;;;;;;1.42;0.93;;;10.30;10.20;;;;;;5105580;28;20093;-83
2024/03/16 09:39:17;;;;;;;2.33;0.73;;;10.40;1.00;;;;;;5098075;28;20040;-81
2024/03/16 09:42:07;;;;;;;2.55;1.20;;;10.50;1.00;;;;;;5097249;28;20044;-81
2024/03/16 09:45:06;;;;;;;2.90;1.45;;;10.50;99.90;;;;;;5106086;27;20062;-79
2024/03/16 09:47:53;;;;;;;2.17;0.77;;;10.60;99.90;;;;;;5089828;28;20043;-81
2024/03/16 09:50:55;;;;;;;1.10;0.70;;;10.60;99.90;;;;;;5104066;28;20032;-81
2024/03/16 09:53:41;;;;;;;2.17;1.30;;;10.60;1.00;;;;;;5105150;28;20033;-81
2024/03/16 09:56:30;;;;;;;1.35;0.82;;;10.60;99.90;;;;;;5071161;28;20416;-81
2024/03/16 09:59:17;;;;;;;1.48;1.20;;;10.90;42.70;;;;;;5083393;28;20040;-83
2024/03/16 10:02:10;;;;;;;1.10;0.60;;;11.70;99.90;;;;;;5066164;28;20496;-81
2024/03/16 10:04:57;;;;;;;3.45;0.70;;;13.10;27.90;;;;;;5083634;28;20066;-80
2024/03/16 10:07:45;;;;;;;2.47;0.65;;;13.80;99.90;;;;;;5076905;28;20092;-81
2024/03/16 10:10:32;;;;;;;1.05;0.50;;;14.30;99.90;;;;;;5085203;28;20866;-78
2024/03/16 10:13:20;;;;;;;0.90;0.50;;;14.70;1.00;;;;;;5085795;28;20093;-81
2024/03/16 10:16:11;;;;;;;0.65;0.60;;;15.20;1.00;;;;;;5094275;28;20481;-80
2024/03/16 10:18:57;;;;;;;1.58;0.65;;;15.80;99.90;;;;;;5097938;27;20044;-81
2024/03/16 10:21:46;;;;;;;1.42;0.70;;;15.30;1.00;;;;;;5077796;28;20496;-81
2024/03/16 10:24:33;;;;;;;1.65;0.50;;;14.80;99.90;;;;;;5100163;27;20055;-77
2024/03/16 10:27:21;;;;;;;1.98;0.60;;;14.20;99.90;;;;;;5092752;28;20054;-82
2024/03/16 10:30:12;;;;;;;2.25;0.60;;;13.50;99.90;;;;;;5102436;28;20044;-81
2024/03/16 10:33:00;;;;;;;1.35;0.57;;;12.70;99.90;;;;;;5089449;27;20039;-81
2024/03/16 10:35:46;;;;;;;1.25;0.70;;;12.30;99.90;;;;;;5086199;28;20040;-81
2024/03/16 10:38:34;;;;;;;1.60;0.70;;;12.10;99.90;;;;;;5091177;28;20032;-78
2024/03/16 10:41:20;;;;;;;1.33;0.70;;;11.60;99.90;;;;;;5091792;27;20067;-81
2024/03/16 10:44:10;;;;;;;1.77;0.80;;;11.20;99.90;;;;;;5087221;28;20114;-80
2024/03/16 10:46:58;;;;;;;2.38;1.10;;;11.10;1.00;;;;;;5076803;27;20038;-78
2024/03/16 10:49:47;;;;;;;2.60;1.10;;;11.00;76.10;;;;;;5088222;28;20146;-81
2024/03/16 10:52:43;;;;;;;2.08;0.70;;;11.00;99.90;;;;;;5080329;28;20036;-81
2024/03/16 10:55:30;;;;;;;2.63;0.90;;;11.00;99.90;;;;;;5086182;27;20035;-78
2024/03/16 10:58:27;;;;;;;2.63;0.60;;;11.00;99.90;;;;;;5094618;28;20055;-83
2024/03/16 11:01:18;;;;;;;2.65;0.73;;;11.00;99.90;;;;;;5089555;28;20048;-82
2024/03/16 11:04:11;;;;;;;0.77;0.77;;;11.00;99.90;;;;;;5070350;28;20048;-79
2024/03/16 11:06:58;;;;;;;1.65;0.77;;;11.10;99.90;;;;;;5081819;28;20058;-83
2024/03/16 11:09:45;;;;;;;1.85;0.75;;;11.30;99.90;;;;;;5066957;28;20763;-83
2024/03/16 11:12:33;;;;;;;1.45;0.90;;;11.80;99.90;;;;;;5103988;28;20044;-81
2024/03/16 11:15:41;;;;;;;1.85;0.70;;;12.70;99.90;;;;;;5097596;27;20218;-80
2024/03/16 11:18:30;;;;;;;0.55;0.50;;;13.80;99.90;;;;;;5072485;28;20035;-76
2024/03/16 11:21:20;;;;;;;0.77;0.60;;;14.70;1.00;;;;;;5097153;28;20062;-82
2024/03/16 11:24:17;;;;;;;1.15;0.70;;;15.70;99.90;;;;;;5092993;27;20064;-81
2024/03/16 11:27:12;;;;;;;1.00;0.47;;;16.60;99.90;;;;;;5099287;28;20095;-77
2024/03/16 11:29:59;;;;;;;0.50;0.40;;;17.10;1.00;;;;;;5095662;28;20043;-78
2024/03/16 11:32:46;;;;;;;0.68;0.40;;;16.50;1.00;;;;;;5091387;28;20051;-80
2024/03/16 11:35:32;;;;;;;1.13;0.60;;;16.80;99.90;;;;;;5072684;28;20354;-79
2024/03/16 11:38:18;;;;;;;0.68;0.50;;;17.10;99.90;;;;;;5088585;28;20539;-81
2024/03/16 11:41:08;;;;;;;0.40;0.40;;;17.60;99.90;;;;;;5086808;28;20381;-82
2024/03/16 11:43:56;;;;;;;1.05;0.63;;;15.90;99.90;;;;;;5088219;28;20401;-84
2024/03/16 11:46:44;;;;;;;0.85;0.47;;;15.40;99.90;;;;;;5089575;28;20043;-80
2024/03/16 11:49:31;;;;;;;1.20;0.77;;;15.20;99.90;;;;;;5087194;27;20054;-81
2024/03/16 11:52:17;;;;;;;1.50;0.90;;;15.40;99.90;;;;;;5087115;28;20140;-81
2024/03/16 11:55:06;;;;;;;2.67;1.45;;;14.50;99.90;;;;;;5088289;27;20504;-82
2024/03/16 11:57:52;;;;;;;0.60;0.47;;;14.60;99.90;;;;;;5095422;28;20504;-80
2024/03/16 12:00:45;;;;;;;0.85;0.60;;;15.00;99.90;;;;;;5082070;28;20048;-80
2024/03/16 12:03:31;;;;;;;0.70;0.70;;;14.80;99.90;;;;;;5098257;28;20099;-80
2024/03/16 12:06:19;;;;;;;1.20;0.80;;;14.40;99.90;;;;;;5104679;28;20051;-80
2024/03/16 12:09:15;;;;;;;0.60;0.60;;;14.10;99.90;;;;;;5088594;28;20432;-80
2024/03/16 12:12:03;;;;;;;0.57;0.50;;;13.50;99.90;;;;;;5088094;28;20054;-81
2024/03/16 12:15:17;;;;;;;0.40;0.40;;;13.80;99.90;;;;;;5092867;28;20040;-79
2024/03/16 12:18:21;;;;;;;0.40;0.40;;;14.80;99.90;;;;;;5093482;28;20400;-83
2024/03/16 12:21:09;;;;;;;0.20;0.20;;;15.60;99.90;;;;;;5105947;27;20123;-79
2024/03/16 12:23:57;;;;;;;0.30;0.30;;;16.90;99.90;;;;;;5099726;28;20149;-81
2024/03/16 12:26:45;;;;;;;0.38;0.38;;;17.20;99.90;;;;;;5092573;28;20068;-83
2024/03/16 12:29:32;;;;;;;0.30;0.30;;;17.30;99.90;;;;;;5087615;28;20044;-80
2024/03/16 12:32:18;;;;;;;0.28;0.28;;;17.70;99.90;;;;;;5077641;27;20514;-82
2024/03/16 12:35:09;;;;;;;2.58;0.47;;;18.50;99.90;;;;;;5081191;28;20044;-81
2024/03/16 12:37:55;;;;;;;1.77;0.80;;;17.80;99.90;;;;;;5078172;28;20041;-82
2024/03/16 12:40:42;;;;;;;1.90;1.40;;;19.10;99.90;;;;;;5089338;28;20055;-82
2024/03/16 12:43:29;;;;;;;1.83;0.45;;;19.60;96.40;;;;;;5094898;28;20044;-82
2024/03/16 12:46:15;;;;;;;1.48;0.55;;;20.50;68.90;;;;;;5078008;28;20150;-80
2024/03/16 12:49:04;;;;;;;0.60;0.47;;;19.90;49.60;;;;;;5083751;27;20043;-81
2024/03/16 12:51:51;;;;;;;0.88;0.70;;;20.20;45.20;;;;;;5092424;28;20066;-84
2024/03/16 12:54:38;;;;;;;0.50;0.50;;;20.70;34.80;;;;;;5088275;28;20077;-83
2024/03/16 12:57:25;;;;;;;0.73;0.50;;;19.40;16.80;;;;;;5068871;28;20420;-76
2024/03/16 13:00:12;;;;;;;0.43;0.43;;;19.60;18.60;;;;;;5098275;28;20032;-84
2024/03/16 13:02:58;;;;;;;1.23;0.50;;;19.60;13.20;;;;;;5079834;28;20035;-80
2024/03/16 13:05:46;;;;;;;0.43;0.32;;;19.50;8.30;;;;;;5082642;28;20489;-79
2024/03/16 13:08:35;;;;;;;0.38;0.35;;;18.90;4.20;;;;;;5089473;27;20042;-80
2024/03/16 13:11:25;;;;;;;1.00;0.30;;;19.30;6.70;;;;;;5088851;27;20043;-83
2024/03/16 13:14:11;;;;;;;0.90;0.30;;;20.30;1.00;;;;;;5072717;28;20036;-79
2024/03/16 13:16:59;;;;;;;0.40;0.40;;;19.10;1.00;;;;;;5091663;27;20040;-83
2024/03/16 13:19:47;;;;;;;0.75;0.43;;;17.10;1.00;;;;;;5088421;28;20062;-82
2024/03/16 13:22:34;;;;;;;0.30;0.30;;;16.10;7.80;;;;;;5087163;28;20444;-79
2024/03/16 13:25:20;;;;;;;0.47;0.47;;;15.20;23.80;;;;;;5077442;28;20055;-81
2024/03/16 13:28:06;;;;;;;0.60;0.38;;;14.60;51.50;;;;;;5089308;28;20197;-81
2024/03/16 13:30:54;;;;;;;2.08;0.52;;;14.20;83.30;;;;;;5090257;28;20048;-79
2024/03/16 13:33:41;;;;;;;2.17;1.20;;;14.00;99.90;;;;;;5099030;27;20050;-80
2024/03/16 13:36:28;;;;;;;0.45;0.45;;;14.40;99.90;;;;;;5096435;28;20055;-78
2024/03/16 13:39:16;;;;;;;0.40;0.40;;;15.30;99.90;;;;;;5106081;27;20042;-80
2024/03/16 13:42:04;;;;;;;0.40;0.40;;;17.30;99.90;;;;;;5100589;28;20039;-80
2024/03/16 13:44:53;;;;;;;0.40;0.40;;;19.00;64.60;;;;;;5110623;28;20043;-78
2024/03/16 13:47:41;;;;;;;0.30;0.30;;;19.70;28.90;;;;;;5105398;28;20117;-80
2024/03/16 13:50:31;;;;;;;1.25;0.40;;;20.00;10.50;;;;;;5098844;28;20046;-82
2024/03/16 13:53:18;;;;;;;0.55;0.40;;;20.00;1.00;;;;;;5087818;28;20063;-82
2024/03/16 13:56:05;;;;;;;0.40;0.40;;;20.50;1.00;;;;;;5088274;28;20384;-82
2024/03/16 13:58:53;;;;;;;0.68;0.40;;;21.30;1.00;;;;;;5083718;28;20046;-82
2024/03/16 14:01:40;;;;;;;2.97;0.70;;;21.50;1.00;;;;;;5080992;28;20065;-82
2024/03/16 14:04:30;;;;;;;1.45;0.70;;;21.00;1.00;;;;;;5081693;28;20036;-81
2024/03/16 14:07:17;;;;;;;1.63;0.73;;;20.30;1.00;;;;;;5097771;28;20044;-80
2024/03/16 14:10:08;;;;;;;1.00;0.70;;;19.50;1.00;;;;;;5082798;28;20479;-81
2024/03/16 14:12:56;;;;;;;0.60;0.60;;;17.90;1.00;;;;;;5102797;28;20066;-83
2024/03/16 14:15:43;;;;;;;0.82;0.70;;;18.00;1.00;;;;;;5084172;28;20039;-81
2024/03/16 14:18:29;;;;;;;2.10;0.75;;;18.60;1.00;;;;;;5076380;28;20041;-80
2024/03/16 14:21:16;;;;;;;1.70;0.50;;;18.70;1.00;;;;;;5090996;28;20065;-83
2024/03/16 14:24:03;;;;;;;0.80;0.60;;;18.70;1.00;;;;;;5086005;28;20050;-78
2024/03/16 14:26:50;;;;;;;2.72;1.30;;;18.30;1.00;;;;;;5083350;28;20048;-84
2024/03/16 14:29:38;;;;;;;2.30;0.70;;;17.00;1.00;;;;;;5088319;28;20446;-82
2024/03/16 14:32:24;;;;;;;1.25;0.98;;;17.40;1.00;;;;;;5076213;28;20035;-83
2024/03/16 14:35:11;;;;;;;1.45;0.90;;;18.00;1.00;;;;;;5093417;28;20040;-82
2024/03/16 14:37:57;;;;;;;0.60;0.60;;;17.60;1.00;;;;;;5082489;28;20032;-82
2024/03/16 14:40:44;;;;;;;1.75;1.00;;;17.50;1.00;;;;;;5078967;28;20052;-82
2024/03/16 14:43:31;;;;;;;0.85;0.70;;;16.30;1.00;;;;;;5070670;28;20049;-82
2024/03/16 14:46:17;;;;;;;0.98;0.90;;;16.20;1.00;;;;;;5091158;28;20609;-78
2024/03/16 14:49:03;;;;;;;1.00;0.90;;;15.20;1.00;;;;;;5087352;28;20032;-82